sensor_id;sensor_type;location;lat;lon;timestamp;pressure;altitude;pressure_sealevel;temperature;humidity
58467;BME280;44255;49.244;7.726;2023-02-28T04:30:37;99075.50;;;-2.50;41.90
58467;BME280;44255;49.244;7.726;2023-02-28T04:33:03;99077.25;;;-2.46;41.86
58467;BME280;44255;49.244;7.726;2023-02-28T04:35:28;99077.16;;;-2.32;41.21
58467;BME280;44255;49.244;7.726;2023-02-28T04:37:53;99066.72;;;-2.49;42.13
58467;BME280;44255;49.244;7.726;2023-02-28T04:40:19;99064.94;;;-2.48;42.22
58467;BME280;44255;49.244;7.726;2023-02-28T04:42:44;99070.25;;;-2.56;42.15
58467;BME280;44255;49.244;7.726;2023-02-28T04:45:09;99065.94;;;-2.74;42.28
58467;BME280;44255;49.244;7.726;2023-02-28T04:47:35;99070.22;;;-2.53;42.51
58467;BME280;44255;49.244;7.726;2023-02-28T04:50:01;99067.59;;;-2.51;42.32
58467;BME280;44255;49.244;7.726;2023-02-28T04:52:27;99072.00;;;-2.55;41.84
58467;BME280;44255;49.244;7.726;2023-02-28T04:54:52;99070.22;;;-2.53;41.71
58467;BME280;44255;49.244;7.726;2023-02-28T04:57:18;99070.25;;;-2.54;42.38
58467;BME280;44255;49.244;7.726;2023-02-28T04:59:43;99078.16;;;-2.51;41.83
58467;BME280;44255;49.244;7.726;2023-02-28T05:02:09;99074.72;;;-2.74;42.35
58467;BME280;44255;49.244;7.726;2023-02-28T05:04:34;99082.69;;;-2.88;42.81
58467;BME280;44255;49.244;7.726;2023-02-28T05:07:00;99075.63;;;-2.87;43.12
58467;BME280;44255;49.244;7.726;2023-02-28T05:09:25;99082.69;;;-2.89;43.26
58467;BME280;44255;49.244;7.726;2023-02-28T05:11:50;99087.97;;;-2.86;43.24
58467;BME280;44255;49.244;7.726;2023-02-28T05:14:16;99078.25;;;-2.75;43.01
58467;BME280;44255;49.244;7.726;2023-02-28T05:16:41;99081.72;;;-2.60;42.93
58467;BME280;44255;49.244;7.726;2023-02-28T05:19:06;99083.53;;;-2.73;43.26
58467;BME280;44255;49.244;7.726;2023-02-28T05:21:33;99090.50;;;-2.60;42.75
58467;BME280;44255;49.244;7.726;2023-02-28T05:24:01;99085.22;;;-2.63;42.50
58467;BME280;44255;49.244;7.726;2023-02-28T05:26:27;99087.00;;;-2.68;42.91
58467;BME280;44255;49.244;7.726;2023-02-28T05:28:53;99092.28;;;-2.65;42.99
58467;BME280;44255;49.244;7.726;2023-02-28T05:31:18;99090.50;;;-2.56;42.40
58467;BME280;44255;49.244;7.726;2023-02-28T05:33:44;99094.03;;;-2.61;42.48
58467;BME280;44255;49.244;7.726;2023-02-28T05:36:09;99088.75;;;-2.62;43.06
58467;BME280;44255;49.244;7.726;2023-02-28T05:38:34;99083.41;;;-2.47;42.40
58467;BME280;44255;49.244;7.726;2023-02-28T05:40:59;99085.25;;;-2.69;43.07
58467;BME280;44255;49.244;7.726;2023-02-28T05:43:25;99091.28;;;-2.40;42.09
58467;BME280;44255;49.244;7.726;2023-02-28T05:45:50;99082.47;;;-2.33;42.10
58467;BME280;44255;49.244;7.726;2023-02-28T05:48:15;99087.84;;;-2.55;42.48
58467;BME280;44255;49.244;7.726;2023-02-28T05:50:41;99088.69;;;-2.42;42.45
58467;BME280;44255;49.244;7.726;2023-02-28T05:53:07;99083.34;;;-2.33;42.08
58467;BME280;44255;49.244;7.726;2023-02-28T05:55:32;99088.72;;;-2.54;42.64
58467;BME280;44255;49.244;7.726;2023-02-28T05:57:58;99094.78;;;-2.34;41.99
58467;BME280;44255;49.244;7.726;2023-02-28T06:00:24;99089.44;;;-2.17;42.10
58467;BME280;44255;49.244;7.726;2023-02-28T06:02:50;99093.72;;;-2.03;41.47
58467;BME280;44255;49.244;7.726;2023-02-28T06:05:17;99087.72;;;-2.30;42.56
58467;BME280;44255;49.244;7.726;2023-02-28T06:07:43;99091.19;;;-2.20;42.29
58467;BME280;44255;49.244;7.726;2023-02-28T06:10:09;99094.66;;;-2.09;42.30
58467;BME280;44255;49.244;7.726;2023-02-28T06:12:34;99092.91;;;-2.11;42.09
58467;BME280;44255;49.244;7.726;2023-02-28T06:15:00;99100.00;;;-2.23;41.74
58467;BME280;44255;49.244;7.726;2023-02-28T06:17:25;99095.50;;;-1.96;41.62
58467;BME280;44255;49.244;7.726;2023-02-28T06:19:50;99108.78;;;-2.21;41.80
58467;BME280;44255;49.244;7.726;2023-02-28T06:22:15;99098.06;;;-1.86;41.50
58467;BME280;44255;49.244;7.726;2023-02-28T06:24:41;99100.78;;;-1.96;42.09
58467;BME280;44255;49.244;7.726;2023-02-28T06:27:06;99107.84;;;-2.07;42.10
58467;BME280;44255;49.244;7.726;2023-02-28T06:29:32;99108.69;;;-2.05;41.56
58467;BME280;44255;49.244;7.726;2023-02-28T06:31:57;99106.94;;;-1.97;41.68
58467;BME280;44255;49.244;7.726;2023-02-28T06:34:23;99113.06;;;-2.01;41.46
58467;BME280;44255;49.244;7.726;2023-02-28T06:36:50;99115.75;;;-2.04;41.39
58467;BME280;44255;49.244;7.726;2023-02-28T06:39:16;99114.97;;;-2.20;41.80
58467;BME280;44255;49.244;7.726;2023-02-28T06:41:41;99112.22;;;-2.03;41.71
58467;BME280;44255;49.244;7.726;2023-02-28T06:44:14;99123.66;;;-1.96;41.93
58467;BME280;44255;49.244;7.726;2023-02-28T06:46:41;99129.81;;;-2.02;41.84
58467;BME280;44255;49.244;7.726;2023-02-28T06:49:07;99128.09;;;-2.09;42.01
58467;BME280;44255;49.244;7.726;2023-02-28T06:51:34;99130.78;;;-2.16;42.24
58467;BME280;44255;49.244;7.726;2023-02-28T06:53:59;99124.53;;;-1.96;41.37
58467;BME280;44255;49.244;7.726;2023-02-28T06:56:25;99134.16;;;-1.85;41.04
58467;BME280;44255;49.244;7.726;2023-02-28T06:58:50;99140.41;;;-1.97;41.50
58467;BME280;44255;49.244;7.726;2023-02-28T07:01:18;99143.94;;;-1.97;41.31
58467;BME280;44255;49.244;7.726;2023-02-28T07:03:44;99143.78;;;-1.75;41.18
58467;BME280;44255;49.244;7.726;2023-02-28T07:06:09;99143.63;;;-1.53;40.73
58467;BME280;44255;49.244;7.726;2023-02-28T07:08:35;99138.44;;;-1.69;40.97
58467;BME280;44255;49.244;7.726;2023-02-28T07:11:00;99145.53;;;-1.72;41.44
58467;BME280;44255;49.244;7.726;2023-02-28T07:13:26;99142.91;;;-1.72;41.01
58467;BME280;44255;49.244;7.726;2023-02-28T07:15:55;99147.22;;;-1.61;41.46
58467;BME280;44255;49.244;7.726;2023-02-28T07:18:21;99138.53;;;-1.78;41.26
58467;BME280;44255;49.244;7.726;2023-02-28T07:20:46;99143.69;;;-1.58;41.51
58467;BME280;44255;49.244;7.726;2023-02-28T07:23:11;99142.84;;;-1.65;40.96
58467;BME280;44255;49.244;7.726;2023-02-28T07:25:36;99142.81;;;-1.62;40.75
58467;BME280;44255;49.244;7.726;2023-02-28T07:28:02;99144.47;;;-1.45;41.00
58467;BME280;44255;49.244;7.726;2023-02-28T07:30:27;99152.41;;;-1.48;41.36
58467;BME280;44255;49.244;7.726;2023-02-28T07:32:52;99151.53;;;-1.49;41.04
58467;BME280;44255;49.244;7.726;2023-02-28T07:35:19;99147.13;;;-1.48;40.95
58467;BME280;44255;49.244;7.726;2023-02-28T07:37:44;99146.94;;;-1.26;40.54
58467;BME280;44255;49.244;7.726;2023-02-28T07:40:12;99151.31;;;-1.21;41.06
58467;BME280;44255;49.244;7.726;2023-02-28T07:42:38;99147.09;;;-1.45;41.19
58467;BME280;44255;49.244;7.726;2023-02-28T07:45:04;99152.41;;;-1.45;40.92
58467;BME280;44255;49.244;7.726;2023-02-28T07:47:30;99158.44;;;-1.29;40.74
58467;BME280;44255;49.244;7.726;2023-02-28T07:49:56;99148.44;;;-0.94;40.28
58467;BME280;44255;49.244;7.726;2023-02-28T07:52:21;99152.13;;;-1.11;40.62
58467;BME280;44255;49.244;7.726;2023-02-28T07:54:48;99150.41;;;-1.17;40.81
58467;BME280;44255;49.244;7.726;2023-02-28T07:57:14;99151.34;;;-1.24;40.66
58467;BME280;44255;49.244;7.726;2023-02-28T07:59:39;99152.13;;;-1.11;40.41
58467;BME280;44255;49.244;7.726;2023-02-28T08:02:04;99149.28;;;-0.94;40.05
58467;BME280;44255;49.244;7.726;2023-02-28T08:04:31;99151.25;;;-1.14;40.55
58467;BME280;44255;49.244;7.726;2023-02-28T08:06:57;99144.09;;;-1.03;39.93
58467;BME280;44255;49.244;7.726;2023-02-28T08:09:22;99148.44;;;-0.96;40.21
58467;BME280;44255;49.244;7.726;2023-02-28T08:11:48;99137.69;;;-0.82;39.96
58467;BME280;44255;49.244;7.726;2023-02-28T08:14:13;99144.53;;;-0.61;39.64
58467;BME280;44255;49.244;7.726;2023-02-28T08:16:38;99146.34;;;-0.64;39.87
58467;BME280;44255;49.244;7.726;2023-02-28T08:19:04;99148.78;;;-0.46;39.27
58467;BME280;44255;49.244;7.726;2023-02-28T08:21:29;99155.00;;;-0.47;39.36
58467;BME280;44255;49.244;7.726;2023-02-28T08:23:54;99157.84;;;-0.67;39.50
58467;BME280;44255;49.244;7.726;2023-02-28T08:26:21;99158.00;;;-0.82;39.67
58467;BME280;44255;49.244;7.726;2023-02-28T08:28:47;99158.44;;;-0.41;39.02
58467;BME280;44255;49.244;7.726;2023-02-28T08:31:13;99159.56;;;-0.64;39.58
58467;BME280;44255;49.244;7.726;2023-02-28T08:33:40;99157.56;;;-0.42;38.81
58467;BME280;44255;49.244;7.726;2023-02-28T08:36:07;99160.59;;;-0.76;39.45
58467;BME280;44255;49.244;7.726;2023-02-28T08:38:32;99163.91;;;-0.57;38.87
58467;BME280;44255;49.244;7.726;2023-02-28T08:41:00;99157.63;;;-0.47;38.61
58467;BME280;44255;49.244;7.726;2023-02-28T08:43:26;99159.31;;;-0.39;38.45
58467;BME280;44255;49.244;7.726;2023-02-28T08:45:55;99160.41;;;-0.61;38.95
58467;BME280;44255;49.244;7.726;2023-02-28T08:48:26;99166.41;;;-0.41;38.71
58467;BME280;44255;49.244;7.726;2023-02-28T08:50:56;99156.72;;;-0.44;38.42
58467;BME280;44255;49.244;7.726;2023-02-28T08:53:22;99166.44;;;-0.44;38.58
58467;BME280;44255;49.244;7.726;2023-02-28T08:58:22;99154.13;;;0.22;37.59
58467;BME280;44255;49.244;7.726;2023-02-28T09:00:48;99164.88;;;0.09;37.83
58467;BME280;44255;49.244;7.726;2023-02-28T09:03:13;99152.38;;;0.19;37.52
58467;BME280;44255;49.244;7.726;2023-02-28T09:05:38;99153.13;;;0.28;37.40
58467;BME280;44255;49.244;7.726;2023-02-28T09:08:04;99150.56;;;0.20;37.34
58467;BME280;44255;49.244;7.726;2023-02-28T09:10:29;99160.28;;;0.21;37.46
58467;BME280;44255;49.244;7.726;2023-02-28T09:12:54;99151.28;;;0.33;37.34
58467;BME280;44255;49.244;7.726;2023-02-28T09:15:19;99145.09;;;0.34;37.09
58467;BME280;44255;49.244;7.726;2023-02-28T09:17:45;99150.56;;;0.79;36.69
58467;BME280;44255;49.244;7.726;2023-02-28T09:20:10;99151.28;;;0.33;36.99
58467;BME280;44255;49.244;7.726;2023-02-28T09:22:36;99157.69;;;0.18;37.17
58467;BME280;44255;49.244;7.726;2023-02-28T09:25:01;99156.28;;;0.56;36.75
58467;BME280;44255;49.244;7.726;2023-02-28T09:27:26;99151.00;;;0.54;37.06
58467;BME280;44255;49.244;7.726;2023-02-28T09:29:52;99157.38;;;0.39;36.85
58467;BME280;44255;49.244;7.726;2023-02-28T09:32:17;99157.81;;;0.08;37.21
58467;BME280;44255;49.244;7.726;2023-02-28T09:34:42;99157.28;;;0.46;36.90
58467;BME280;44255;49.244;7.726;2023-02-28T09:37:08;99168.59;;;0.59;36.42
58467;BME280;44255;49.244;7.726;2023-02-28T09:39:33;99169.44;;;0.62;36.58
58467;BME280;44255;49.244;7.726;2023-02-28T09:41:58;99165.94;;;0.59;36.92
58467;BME280;44255;49.244;7.726;2023-02-28T09:44:35;99164.03;;;0.68;36.82
58467;BME280;44255;49.244;7.726;2023-02-28T09:47:10;99161.66;;;0.50;36.55
58467;BME280;44255;49.244;7.726;2023-02-28T09:49:42;99156.44;;;1.00;35.70
58467;BME280;44255;49.244;7.726;2023-02-28T09:52:17;99155.47;;;1.04;35.87
58467;BME280;44255;49.244;7.726;2023-02-28T09:54:44;99167.22;;;0.89;35.85
58467;BME280;44255;49.244;7.726;2023-02-28T09:58:00;99156.00;;;0.73;36.07
58467;BME280;44255;49.244;7.726;2023-02-28T10:02:58;99158.06;;;1.09;36.10
58467;BME280;44255;49.244;7.726;2023-02-28T10:05:33;99146.03;;;0.86;35.87
58467;BME280;44255;49.244;7.726;2023-02-28T10:08:20;99149.97;;;0.62;36.28
58467;BME280;44255;49.244;7.726;2023-02-28T10:10:52;99149.22;;;1.07;35.88
58467;BME280;44255;49.244;7.726;2023-02-28T10:13:25;99151.22;;;0.95;36.20
58467;BME280;44255;49.244;7.726;2023-02-28T10:15:58;99146.94;;;0.85;35.98
58467;BME280;44255;49.244;7.726;2023-02-28T10:18:28;99144.47;;;0.76;36.17
58467;BME280;44255;49.244;7.726;2023-02-28T10:20:56;99148.28;;;1.09;35.89
58467;BME280;44255;49.244;7.726;2023-02-28T10:23:24;99147.59;;;1.00;36.14
58467;BME280;44255;49.244;7.726;2023-02-28T10:25:57;99148.03;;;1.23;35.32
58467;BME280;44255;49.244;7.726;2023-02-28T10:28:24;99151.72;;;1.16;35.46
58467;BME280;44255;49.244;7.726;2023-02-28T10:30:53;99148.09;;;1.22;35.31
58467;BME280;44255;49.244;7.726;2023-02-28T10:33:22;99149.34;;;1.48;35.51
58467;BME280;44255;49.244;7.726;2023-02-28T10:35:49;99141.94;;;1.18;35.38
58467;BME280;44255;49.244;7.726;2023-02-28T10:38:18;99136.59;;;1.65;35.10
58467;BME280;44255;49.244;7.726;2023-02-28T10:40:44;99142.22;;;1.50;35.58
58467;BME280;44255;49.244;7.726;2023-02-28T10:45:38;99133.69;;;1.79;35.05
58467;BME280;44255;49.244;7.726;2023-02-28T10:48:05;99139.50;;;1.97;35.15
58467;BME280;44255;49.244;7.726;2023-02-28T10:50:42;99121.28;;;1.78;34.36
58467;BME280;44255;49.244;7.726;2023-02-28T10:53:14;99120.53;;;1.72;34.84
58467;BME280;44255;49.244;7.726;2023-02-28T10:55:40;99128.22;;;1.43;34.94
58467;BME280;44255;49.244;7.726;2023-02-28T10:58:23;99129.75;;;1.53;34.33
58467;BME280;44255;49.244;7.726;2023-02-28T11:00:50;99122.38;;;1.68;33.98
58467;BME280;44255;49.244;7.726;2023-02-28T11:05:46;99126.72;;;2.13;33.83
58467;BME280;44255;49.244;7.726;2023-02-28T11:08:12;99119.22;;;2.31;33.43
58467;BME280;44255;49.244;7.726;2023-02-28T11:10:39;99117.06;;;2.50;33.18
58467;BME280;44255;49.244;7.726;2023-02-28T11:13:19;99121.63;;;2.81;33.15
58467;BME280;44255;49.244;7.726;2023-02-28T11:15:57;99107.94;;;2.95;32.95
58467;BME280;44255;49.244;7.726;2023-02-28T11:18:25;99112.31;;;2.98;32.20
58467;BME280;44255;49.244;7.726;2023-02-28T11:20:54;99115.16;;;2.55;32.30
58467;BME280;44255;49.244;7.726;2023-02-28T11:23:21;99120.34;;;2.60;32.73
58467;BME280;44255;49.244;7.726;2023-02-28T11:25:52;99120.97;;;2.33;32.23
58467;BME280;44255;49.244;7.726;2023-02-28T11:31:19;99119.38;;;2.24;32.54
58467;BME280;44255;49.244;7.726;2023-02-28T11:33:53;99110.28;;;2.73;32.13
58467;BME280;44255;49.244;7.726;2023-02-28T11:36:24;99105.00;;;2.33;32.60
58467;BME280;44255;49.244;7.726;2023-02-28T11:38:51;99109.09;;;2.48;32.25
58467;BME280;44255;49.244;7.726;2023-02-28T11:41:44;99096.41;;;2.60;32.01
58467;BME280;44255;49.244;7.726;2023-02-28T11:44:45;99093.78;;;2.93;32.45
58467;BME280;44255;49.244;7.726;2023-02-28T11:47:32;99098.50;;;3.48;31.90
58467;BME280;44255;49.244;7.726;2023-02-28T11:50:38;99086.03;;;3.80;30.54
58467;BME280;44255;49.244;7.726;2023-02-28T11:58:54;99088.50;;;3.86;30.50
58467;BME280;44255;49.244;7.726;2023-02-28T12:07:31;99101.16;;;3.16;30.40
58467;BME280;44255;49.244;7.726;2023-02-28T12:10:27;99097.38;;;3.87;30.17
58467;BME280;44255;49.244;7.726;2023-02-28T12:13:18;99095.06;;;6.77;27.75
58467;BME280;44255;49.244;7.726;2023-02-28T12:16:18;99086.13;;;7.20;25.85
58467;BME280;44255;49.244;7.726;2023-02-28T12:19:04;99083.50;;;7.18;26.16
58467;BME280;44255;49.244;7.726;2023-02-28T12:24:24;99072.13;;;6.49;26.35
58467;BME280;44255;49.244;7.726;2023-02-28T12:26:55;99079.75;;;5.92;27.17
58467;BME280;44255;49.244;7.726;2023-02-28T12:29:30;99098.97;;;5.03;27.99
58467;BME280;44255;49.244;7.726;2023-02-28T12:32:04;99090.25;;;4.73;28.31
58467;BME280;44255;49.244;7.726;2023-02-28T12:34:39;99082.38;;;5.20;27.28
58467;BME280;44255;49.244;7.726;2023-02-28T12:37:10;99082.56;;;5.40;27.05
58467;BME280;44255;49.244;7.726;2023-02-28T12:39:44;99093.09;;;7.03;26.26
58467;BME280;44255;49.244;7.726;2023-02-28T12:42:21;99080.66;;;8.01;24.54
58467;BME280;44255;49.244;7.726;2023-02-28T12:44:52;99072.97;;;9.55;22.92
58467;BME280;44255;49.244;7.726;2023-02-28T12:47:19;99074.72;;;8.68;23.95
58467;BME280;44255;49.244;7.726;2023-02-28T12:49:57;99069.19;;;12.73;20.25
58467;BME280;44255;49.244;7.726;2023-02-28T12:52:59;99054.19;;;13.36;19.67
58467;BME280;44255;49.244;7.726;2023-02-28T12:55:33;99058.00;;;10.78;21.75
58467;BME280;44255;49.244;7.726;2023-02-28T13:04:25;99055.38;;;15.05;18.07
58467;BME280;44255;49.244;7.726;2023-02-28T13:09:37;99049.44;;;17.87;15.73
58467;BME280;44255;49.244;7.726;2023-02-28T13:12:12;99045.69;;;16.28;15.89
58467;BME280;44255;49.244;7.726;2023-02-28T13:14:38;99041.75;;;17.19;15.98
58467;BME280;44255;49.244;7.726;2023-02-28T13:19:36;99065.09;;;13.08;18.78
58467;BME280;44255;49.244;7.726;2023-02-28T13:22:02;99061.13;;;16.71;16.66
58467;BME280;44255;49.244;7.726;2023-02-28T13:34:34;99041.81;;;18.32;14.97
58467;BME280;44255;49.244;7.726;2023-02-28T13:47:34;99063.59;;;17.07;15.86
58467;BME280;44255;49.244;7.726;2023-02-28T13:55:51;99068.19;;;15.27;16.88
58467;BME280;44255;49.244;7.726;2023-02-28T13:58:25;99062.88;;;17.05;15.51
58467;BME280;44255;49.244;7.726;2023-02-28T14:06:36;99048.41;;;20.13;13.67
58467;BME280;44255;49.244;7.726;2023-02-28T14:09:14;99050.88;;;18.42;14.45
58467;BME280;44255;49.244;7.726;2023-02-28T14:11:43;99064.25;;;17.21;15.16
58467;BME280;44255;49.244;7.726;2023-02-28T14:14:52;99063.56;;;15.16;16.85
58467;BME280;44255;49.244;7.726;2023-02-28T14:16:55;99051.31;;;16.48;16.03
58467;BME280;44255;49.244;7.726;2023-02-28T14:19:25;99035.81;;;18.48;14.76
58467;BME280;44255;49.244;7.726;2023-02-28T14:27:14;99056.81;;;16.69;15.87
58467;BME280;44255;49.244;7.726;2023-02-28T14:32:45;99057.22;;;15.29;17.07
58467;BME280;44255;49.244;7.726;2023-02-28T14:37:50;99062.88;;;14.41;17.74
58467;BME280;44255;49.244;7.726;2023-02-28T14:40:28;99056.00;;;13.48;18.33
58467;BME280;44255;49.244;7.726;2023-02-28T14:43:00;99057.19;;;13.44;18.42
58467;BME280;44255;49.244;7.726;2023-02-28T14:45:29;99071.47;;;11.54;19.81
58467;BME280;44255;49.244;7.726;2023-02-28T14:47:56;99071.09;;;10.70;20.94
58467;BME280;44255;49.244;7.726;2023-02-28T14:50:24;99066.91;;;10.33;21.14
58467;BME280;44255;49.244;7.726;2023-02-28T14:52:53;99054.81;;;11.61;20.04
58467;BME280;44255;49.244;7.726;2023-02-28T14:55:19;99056.31;;;13.05;19.08
58467;BME280;44255;49.244;7.726;2023-02-28T15:00:27;99042.03;;;13.54;18.13
58467;BME280;44255;49.244;7.726;2023-02-28T15:02:54;99041.38;;;13.51;18.68
58467;BME280;44255;49.244;7.726;2023-02-28T15:08:01;99039.72;;;15.09;17.26
58467;BME280;44255;49.244;7.726;2023-02-28T15:10:27;99053.63;;;13.43;18.43
58467;BME280;44255;49.244;7.726;2023-02-28T15:12:56;99048.31;;;14.42;17.25
58467;BME280;44255;49.244;7.726;2023-02-28T15:15:24;99056.75;;;13.63;18.02
58467;BME280;44255;49.244;7.726;2023-02-28T15:17:53;99056.97;;;12.40;19.05
58467;BME280;44255;49.244;7.726;2023-02-28T15:20:21;99052.31;;;12.15;19.53
58467;BME280;44255;49.244;7.726;2023-02-28T15:22:49;99046.19;;;11.98;19.76
58467;BME280;44255;49.244;7.726;2023-02-28T15:25:20;99051.78;;;12.37;19.52
58467;BME280;44255;49.244;7.726;2023-02-28T15:27:50;99051.09;;;12.33;19.59
58467;BME280;44255;49.244;7.726;2023-02-28T15:30:26;99040.38;;;13.65;18.42
58467;BME280;44255;49.244;7.726;2023-02-28T15:35:33;99046.69;;;13.39;18.62
58467;BME280;44255;49.244;7.726;2023-02-28T15:38:12;99052.09;;;13.39;18.61
58467;BME280;44255;49.244;7.726;2023-02-28T15:40:42;99044.13;;;14.98;17.27
58467;BME280;44255;49.244;7.726;2023-02-28T15:43:16;99048.06;;;14.58;17.49
58467;BME280;44255;49.244;7.726;2023-02-28T15:45:55;99065.28;;;12.92;18.81
58467;BME280;44255;49.244;7.726;2023-02-28T15:48:42;99062.56;;;13.05;18.82
58467;BME280;44255;49.244;7.726;2023-02-28T15:51:16;99068.25;;;13.28;18.42
58467;BME280;44255;49.244;7.726;2023-02-28T15:53:54;99073.75;;;13.26;18.90
58467;BME280;44255;49.244;7.726;2023-02-28T15:56:27;99061.38;;;14.37;17.78
58467;BME280;44255;49.244;7.726;2023-02-28T15:58:57;99068.78;;;13.33;18.48
58467;BME280;44255;49.244;7.726;2023-02-28T16:01:28;99066.91;;;11.40;20.12
58467;BME280;44255;49.244;7.726;2023-02-28T16:04:04;99064.75;;;12.72;18.92
58467;BME280;44255;49.244;7.726;2023-02-28T16:06:40;99068.22;;;12.74;19.05
58467;BME280;44255;49.244;7.726;2023-02-28T16:09:15;99071.97;;;12.59;18.97
58467;BME280;44255;49.244;7.726;2023-02-28T16:11:43;99062.69;;;11.94;19.58
58467;BME280;44255;49.244;7.726;2023-02-28T16:14:21;99085.50;;;9.88;21.79
58467;BME280;44255;49.244;7.726;2023-02-28T16:16:51;99077.69;;;8.63;23.03
58467;BME280;44255;49.244;7.726;2023-02-28T16:19:17;99082.66;;;7.77;24.06
58467;BME280;44255;49.244;7.726;2023-02-28T16:21:43;99088.78;;;7.81;24.04
58467;BME280;44255;49.244;7.726;2023-02-28T16:24:08;99090.22;;;7.69;24.37
58467;BME280;44255;49.244;7.726;2023-02-28T16:26:34;99091.88;;;7.11;24.63
58467;BME280;44255;49.244;7.726;2023-02-28T16:29:01;99088.88;;;6.98;24.97
58467;BME280;44255;49.244;7.726;2023-02-28T16:31:27;99090.28;;;6.41;26.05
58467;BME280;44255;49.244;7.726;2023-02-28T16:33:53;99102.50;;;6.26;26.11
58467;BME280;44255;49.244;7.726;2023-02-28T16:36:22;99105.59;;;6.37;25.87
58467;BME280;44255;49.244;7.726;2023-02-28T16:38:50;99106.16;;;6.23;26.14
58467;BME280;44255;49.244;7.726;2023-02-28T16:41:21;99108.47;;;6.11;26.48
58467;BME280;44255;49.244;7.726;2023-02-28T16:43:48;99120.09;;;5.86;26.56
58467;BME280;44255;49.244;7.726;2023-02-28T16:46:15;99113.38;;;5.75;26.82
58467;BME280;44255;49.244;7.726;2023-02-28T16:48:42;99118.94;;;5.93;26.70
58467;BME280;44255;49.244;7.726;2023-02-28T16:51:17;99130.41;;;5.47;27.24
58467;BME280;44255;49.244;7.726;2023-02-28T16:53:44;99130.75;;;5.38;27.62
58467;BME280;44255;49.244;7.726;2023-02-28T16:56:19;99128.50;;;5.26;27.65
58467;BME280;44255;49.244;7.726;2023-02-28T16:58:45;99131.16;;;5.26;27.19
58467;BME280;44255;49.244;7.726;2023-02-28T17:01:11;99133.72;;;5.03;27.80
58467;BME280;44255;49.244;7.726;2023-02-28T17:03:36;99134.41;;;5.08;27.73
58467;BME280;44255;49.244;7.726;2023-02-28T17:06:03;99137.06;;;4.83;27.73
58467;BME280;44255;49.244;7.726;2023-02-28T17:08:28;99147.63;;;4.59;28.72
58467;BME280;44255;49.244;7.726;2023-02-28T17:10:54;99150.03;;;4.69;28.11
58467;BME280;44255;49.244;7.726;2023-02-28T17:13:20;99156.81;;;4.22;28.99
58467;BME280;44255;49.244;7.726;2023-02-28T17:15:45;99149.69;;;4.51;28.78
58467;BME280;44255;49.244;7.726;2023-02-28T17:18:16;99143.69;;;4.44;28.70
58467;BME280;44255;49.244;7.726;2023-02-28T17:20:44;99157.25;;;4.36;28.85
58467;BME280;44255;49.244;7.726;2023-02-28T17:23:09;99155.31;;;4.42;28.56
58467;BME280;44255;49.244;7.726;2023-02-28T17:25:34;99165.50;;;3.97;29.24
58467;BME280;44255;49.244;7.726;2023-02-28T17:27:59;99159.78;;;3.79;29.55
58467;BME280;44255;49.244;7.726;2023-02-28T17:30:26;99170.31;;;3.86;29.90
58467;BME280;44255;49.244;7.726;2023-02-28T17:32:55;99170.75;;;3.70;29.67
58467;BME280;44255;49.244;7.726;2023-02-28T17:35:21;99176.91;;;3.72;30.00
58467;BME280;44255;49.244;7.726;2023-02-28T17:37:47;99185.06;;;3.66;29.99
58467;BME280;44255;49.244;7.726;2023-02-28T17:40:19;99180.91;;;3.56;29.66
58467;BME280;44255;49.244;7.726;2023-02-28T17:42:44;99182.41;;;3.66;30.19
58467;BME280;44255;49.244;7.726;2023-02-28T17:45:10;99185.44;;;3.52;30.17
58467;BME280;44255;49.244;7.726;2023-02-28T17:47:36;99190.44;;;3.64;30.09
58467;BME280;44255;49.244;7.726;2023-02-28T17:50:02;99186.25;;;3.56;29.86
58467;BME280;44255;49.244;7.726;2023-02-28T17:52:27;99189.38;;;3.38;30.57
58467;BME280;44255;49.244;7.726;2023-02-28T17:54:54;99196.69;;;3.30;30.68
58467;BME280;44255;49.244;7.726;2023-02-28T17:57:19;99192.78;;;3.44;30.46
58467;BME280;44255;49.244;7.726;2023-02-28T17:59:45;99188.91;;;3.22;30.54
58467;BME280;44255;49.244;7.726;2023-02-28T18:02:12;99193.31;;;3.23;30.71
58467;BME280;44255;49.244;7.726;2023-02-28T18:04:38;99192.31;;;2.93;30.92
58467;BME280;44255;49.244;7.726;2023-02-28T18:07:05;99193.66;;;3.09;30.69
58467;BME280;44255;49.244;7.726;2023-02-28T18:09:30;99187.72;;;2.98;30.91
58467;BME280;44255;49.244;7.726;2023-02-28T18:11:56;99194.97;;;2.93;31.25
58467;BME280;44255;49.244;7.726;2023-02-28T18:14:23;99194.44;;;2.77;31.87
58467;BME280;44255;49.244;7.726;2023-02-28T18:16:50;99191.88;;;2.74;32.02
58467;BME280;44255;49.244;7.726;2023-02-28T18:19:15;99193.84;;;2.65;31.56
58467;BME280;44255;49.244;7.726;2023-02-28T18:21:46;99191.66;;;2.45;32.01
58467;BME280;44255;49.244;7.726;2023-02-28T18:24:13;99195.91;;;2.52;31.85
58467;BME280;44255;49.244;7.726;2023-02-28T18:26:39;99198.28;;;2.24;32.53
58467;BME280;44255;49.244;7.726;2023-02-28T18:29:05;99194.50;;;2.36;32.53
58467;BME280;44255;49.244;7.726;2023-02-28T18:31:31;99190.88;;;2.38;32.05
58467;BME280;44255;49.244;7.726;2023-02-28T18:33:57;99197.28;;;2.30;32.74
58467;BME280;44255;49.244;7.726;2023-02-28T18:36:22;99193.31;;;2.08;32.36
58467;BME280;44255;49.244;7.726;2023-02-28T18:38:48;99200.56;;;2.00;32.61
58467;BME280;44255;49.244;7.726;2023-02-28T18:41:15;99194.41;;;1.98;33.31
58467;BME280;44255;49.244;7.726;2023-02-28T18:43:40;99199.06;;;1.88;33.14
58467;BME280;44255;49.244;7.726;2023-02-28T18:46:11;99194.53;;;1.92;33.21
58467;BME280;44255;49.244;7.726;2023-02-28T18:48:37;99200.34;;;1.67;33.37
58467;BME280;44255;49.244;7.726;2023-02-28T18:53:34;99206.38;;;1.75;33.20
58467;BME280;44255;49.244;7.726;2023-02-28T18:56:00;99205.81;;;1.59;33.80
58467;BME280;44255;49.244;7.726;2023-02-28T18:58:25;99201.47;;;1.55;33.83
58467;BME280;44255;49.244;7.726;2023-02-28T19:00:51;99198.06;;;1.48;33.73
58467;BME280;44255;49.244;7.726;2023-02-28T19:03:16;99201.13;;;1.25;34.77
58467;BME280;44255;49.244;7.726;2023-02-28T19:05:42;99200.97;;;1.34;34.42
58467;BME280;44255;49.244;7.726;2023-02-28T19:08:07;99210.47;;;0.96;34.78
58467;BME280;44255;49.244;7.726;2023-02-28T19:10:33;99210.13;;;1.18;34.94
58467;BME280;44255;49.244;7.726;2023-02-28T19:12:58;99206.66;;;1.13;34.76
58467;BME280;44255;49.244;7.726;2023-02-28T19:15:23;99207.63;;;1.07;35.31